Valparaiso, FL (32580)

12:16 PM CST on February 22, 2017 (GMT -0600)
LaRoux Point Boggy Bayou | | Change Station

Elev 15 ft 30.50 °N, 86.49 °W | Updated 35 seconds ago

Rain
Rain
65.3 °F
Feels Like 65.3 °F
N
19.0
Wind Variable Wind from NNE
Gusts 22.0 mph

Today
High -- | Low -- °F
--% Chance of Precip.
Yesterday
High -- | Low -- °F
Precip. -- in
Pressure 29.73 in
Visibility 10.0 miles
Clouds Mostly Cloudy 900 ft
Mostly Cloudy 1600 ft
Mostly Cloudy 7000 ft
Dew Point 63 °F
Humidity 92%
Rainfall 0.06 in
Snow Depth Not available.
6:19 AM 5:39 PM
Waning Crescent, 16% visible
METAR KVPS 221755Z 01012KT 10SM BKN009 BKN016 BKN070 18/16 A2971 RMK AO2A SLP066 P0003 60003 T01800164 10180 20149 58016 $
Pressure 29.73 in
Visibility 10.0 miles
Clouds Mostly Cloudy 900 ft
Mostly Cloudy 1600 ft
Mostly Cloudy 7000 ft
Dew Point 63 °F
Humidity 92%
Rainfall 0.06 in
Snow Depth Not available.
6:19 AM 5:39 PM
Waning Crescent, 16% visible
METAR KVPS 221755Z 01012KT 10SM BKN009 BKN016 BKN070 18/16 A2971 RMK AO2A SLP066 P0003 60003 T01800164 10180 20149 58016 $

Get Your Daily Forecast Email!

Thanks for signing up!

Be on the lookout for a verification email in your inbox.

You'll start receiving the daily forecast at 8 AM.

×

10-Day Weather Forecast

Almanac

Astronomy

Feb. 22, 2017 Rise Set
Actual Time
Civil Twilight
Nautical Twilight
Astronomical Twilight
Moon
Length of Visible Light
Length of Day
Tomorrow will be .
, % of the Moon is Illuminated

Today's Extremes

State Highs State Lows

Community

WunderPhotos

Upload Photos

1,962,540 photos uploaded!

WunderBlog® & News

Nearby

Air Quality

  Air Quality AQ Index Pollutant
Not available.

Snow Depth

Station Depth Elevation

Earthquake Activity

City Distance Mag. Time & Date
Minimum magnitude displayed is 2.5.

Coastal Water Temperatures

Place Temperature

Stations

Nearby Weather Stations

Station Location Temp. Windchill Dew Point Humidity Wind Precip. Elev Updated Type
                   

Watches & Warnings

There are currently no watches in effect.